EJU856N LIMC-LICA
Flight info
| Callsign | EJU856N |
|---|---|
| Flight time | 1h 29m |
| Altitude | 37000 |
| Route | ROBAS DCT LOGDI DCT EKDIR DCT POLIT DCT EVINO M620 ARBUM |
| Aircraft | A320/M-SDE3FGHIRWY/LB1 |
Departure
| Time | 2026-04-24 12:01 |
|---|---|
| Airport | Milan Malpensa International Airport (LIMC) |
Arrival
| Time | 2026-04-24 13:30 |
|---|---|
| Airport | Lamezia Terme Sant'Eufemia International Airport (LICA) |
| Time | Latitude | Longitude | Altitude | Speed | Heading |
|---|---|---|---|---|---|
| 2026-04-24 11:47 | 45.64539 | 8.72347 | 769 ft | 0 kts | 349° |
| 2026-04-24 11:47 | 45.64517 | 8.72353 | 769 ft | 4 kts | 349° |
| 2026-04-24 11:48 | 45.64491 | 8.72360 | 768 ft | 4 kts | 352° |
| 2026-04-24 11:48 | 45.64464 | 8.72361 | 768 ft | 4 kts | 13° |
| 2026-04-24 11:48 | 45.64443 | 8.72346 | 767 ft | 4 kts | 59° |
| 2026-04-24 11:48 | 45.64438 | 8.72329 | 767 ft | 1 kts | 79° |
| 2026-04-24 11:49 | 45.64437 | 8.72326 | 767 ft | 0 kts | 79° |
| 2026-04-24 11:53 | 45.64442 | 8.72369 | 767 ft | 10 kts | 84° |
| 2026-04-24 11:53 | 45.64402 | 8.72432 | 766 ft | 9 kts | 166° |
| 2026-04-24 11:53 | 45.64337 | 8.72453 | 765 ft | 10 kts | 167° |
| 2026-04-24 11:53 | 45.64254 | 8.72474 | 763 ft | 18 kts | 168° |
| 2026-04-24 11:54 | 45.64119 | 8.72512 | 757 ft | 21 kts | 169° |
| 2026-04-24 11:54 | 45.63963 | 8.72562 | 757 ft | 25 kts | 170° |
| 2026-04-24 11:54 | 45.63815 | 8.72601 | 751 ft | 13 kts | 173° |
| 2026-04-24 11:54 | 45.63720 | 8.72630 | 752 ft | 15 kts | 168° |
| 2026-04-24 11:55 | 45.63613 | 8.72660 | 747 ft | 17 kts | 169° |
| 2026-04-24 11:55 | 45.63486 | 8.72695 | 747 ft | 20 kts | 169° |
| 2026-04-24 11:55 | 45.63336 | 8.72737 | 743 ft | 24 kts | 168° |
| 2026-04-24 11:55 | 45.63163 | 8.72784 | 741 ft | 27 kts | 169° |
| 2026-04-24 11:56 | 45.62970 | 8.72839 | 737 ft | 30 kts | 169° |
| 2026-04-24 11:56 | 45.62762 | 8.72895 | 732 ft | 32 kts | 168° |
| 2026-04-24 11:56 | 45.62536 | 8.72959 | 728 ft | 34 kts | 169° |
| 2026-04-24 11:56 | 45.62296 | 8.73024 | 724 ft | 36 kts | 169° |
| 2026-04-24 11:57 | 45.62046 | 8.73092 | 721 ft | 37 kts | 169° |
| 2026-04-24 11:57 | 45.61896 | 8.73136 | 715 ft | 19 kts | 167° |
| 2026-04-24 11:57 | 45.61757 | 8.73178 | 715 ft | 20 kts | 154° |
| 2026-04-24 11:57 | 45.61684 | 8.73332 | 711 ft | 20 kts | 124° |
| 2026-04-24 11:58 | 45.61599 | 8.73513 | 705 ft | 22 kts | 118° |
| 2026-04-24 11:58 | 45.61587 | 8.73579 | 705 ft | 0 kts | 93° |
| 2026-04-24 11:59 | 45.61601 | 8.73686 | 699 ft | 20 kts | 60° |
| 2026-04-24 12:00 | 45.61724 | 8.73709 | 706 ft | 19 kts | 349° |
| 2026-04-24 12:00 | 45.61974 | 8.73640 | 712 ft | 69 kts | 349° |
| 2026-04-24 12:00 | 45.62667 | 8.73448 | 730 ft | 132 kts | 349° |
| 2026-04-24 12:00 | 45.63722 | 8.73160 | 931 ft | 163 kts | 348° |
| 2026-04-24 12:01 | 45.64823 | 8.72857 | 1671 ft | 164 kts | 348° |
| 2026-04-24 12:01 | 45.66035 | 8.72554 | 2041 ft | 189 kts | 349° |
| 2026-04-24 12:01 | 45.67409 | 8.72335 | 2454 ft | 209 kts | 357° |
| 2026-04-24 12:01 | 45.68941 | 8.72329 | 2914 ft | 233 kts | 1° |
| 2026-04-24 12:02 | 45.70590 | 8.72395 | 3687 ft | 240 kts | 1° |
| 2026-04-24 12:02 | 45.72230 | 8.72060 | 4575 ft | 239 kts | 332° |
| 2026-04-24 12:02 | 45.73418 | 8.70439 | 5362 ft | 241 kts | 297° |
| 2026-04-24 12:02 | 45.73725 | 8.68126 | 5641 ft | 240 kts | 263° |
| 2026-04-24 12:03 | 45.73326 | 8.65820 | 5723 ft | 239 kts | 251° |
| 2026-04-24 12:03 | 45.72723 | 8.63600 | 5739 ft | 239 kts | 248° |
| 2026-04-24 12:03 | 45.72106 | 8.61383 | 5765 ft | 241 kts | 248° |
| 2026-04-24 12:03 | 45.71258 | 8.59243 | 6087 ft | 260 kts | 234° |
| 2026-04-24 12:04 | 45.70139 | 8.57083 | 6594 ft | 275 kts | 236° |
| 2026-04-24 12:04 | 45.69052 | 8.54798 | 7456 ft | 281 kts | 236° |
| 2026-04-24 12:04 | 45.67729 | 8.52699 | 8330 ft | 289 kts | 222° |
| 2026-04-24 12:04 | 45.66030 | 8.51109 | 9176 ft | 296 kts | 205° |
| 2026-04-24 12:05 | 45.64114 | 8.49968 | 10076 ft | 301 kts | 202° |
| 2026-04-24 12:05 | 45.62127 | 8.48818 | 10576 ft | 319 kts | 202° |
| 2026-04-24 12:05 | 45.59907 | 8.47988 | 10864 ft | 343 kts | 185° |
| 2026-04-24 12:05 | 45.57494 | 8.48300 | 11355 ft | 355 kts | 163° |
| 2026-04-24 12:06 | 45.55266 | 8.49824 | 12087 ft | 358 kts | 142° |
| 2026-04-24 12:06 | 45.53536 | 8.52368 | 12843 ft | 359 kts | 121° |
| 2026-04-24 12:06 | 45.52460 | 8.55581 | 13633 ft | 361 kts | 110° |
| 2026-04-24 12:06 | 45.51539 | 8.58918 | 14404 ft | 362 kts | 110° |
| 2026-04-24 12:07 | 45.50621 | 8.62270 | 15092 ft | 365 kts | 110° |
| 2026-04-24 12:07 | 45.49693 | 8.65652 | 15782 ft | 368 kts | 110° |
| 2026-04-24 12:07 | 45.48765 | 8.69010 | 16483 ft | 370 kts | 110° |
| 2026-04-24 12:07 | 45.47813 | 8.72434 | 17192 ft | 373 kts | 110° |
| 2026-04-24 12:08 | 45.46852 | 8.75881 | 17906 ft | 376 kts | 110° |
| 2026-04-24 12:08 | 45.45882 | 8.79353 | 18577 ft | 378 kts | 110° |
| 2026-04-24 12:08 | 45.44905 | 8.82846 | 19179 ft | 381 kts | 110° |
| 2026-04-24 12:08 | 45.43921 | 8.86363 | 19787 ft | 383 kts | 110° |
| 2026-04-24 12:09 | 45.42931 | 8.89897 | 20392 ft | 386 kts | 110° |
| 2026-04-24 12:09 | 45.41934 | 8.93458 | 21009 ft | 388 kts | 110° |
| 2026-04-24 12:09 | 45.40927 | 8.97043 | 21611 ft | 391 kts | 109° |
| 2026-04-24 12:09 | 45.39916 | 9.00639 | 22173 ft | 393 kts | 109° |
| 2026-04-24 12:10 | 45.38893 | 9.04267 | 22714 ft | 396 kts | 109° |
| 2026-04-24 12:10 | 45.37863 | 9.07917 | 23262 ft | 399 kts | 109° |
| 2026-04-24 12:10 | 45.36826 | 9.11583 | 23773 ft | 402 kts | 109° |
| 2026-04-24 12:11 | 45.34729 | 9.18997 | 24635 ft | 406 kts | 109° |
| 2026-04-24 12:11 | 45.33667 | 9.22740 | 25040 ft | 409 kts | 109° |
| 2026-04-24 12:11 | 45.32598 | 9.26505 | 25443 ft | 411 kts | 109° |
| 2026-04-24 12:11 | 45.31526 | 9.30282 | 25850 ft | 413 kts | 109° |
| 2026-04-24 12:12 | 45.30443 | 9.34088 | 26223 ft | 417 kts | 109° |
| 2026-04-24 12:12 | 45.29368 | 9.37861 | 26610 ft | 419 kts | 109° |
| 2026-04-24 12:12 | 45.28266 | 9.41716 | 26994 ft | 422 kts | 109° |
| 2026-04-24 12:12 | 45.27155 | 9.45591 | 27366 ft | 424 kts | 109° |
| 2026-04-24 12:13 | 45.26036 | 9.49478 | 27729 ft | 427 kts | 109° |
| 2026-04-24 12:13 | 45.24911 | 9.53387 | 28087 ft | 429 kts | 109° |
| 2026-04-24 12:13 | 45.23778 | 9.57324 | 28424 ft | 431 kts | 109° |
| 2026-04-24 12:13 | 45.22637 | 9.61281 | 28761 ft | 433 kts | 109° |
| 2026-04-24 12:14 | 45.21491 | 9.65248 | 29095 ft | 436 kts | 110° |
| 2026-04-24 12:14 | 45.20128 | 9.69117 | 29413 ft | 441 kts | 118° |
| 2026-04-24 12:14 | 45.18312 | 9.72654 | 29707 ft | 447 kts | 128° |
| 2026-04-24 12:14 | 45.16071 | 9.75752 | 30002 ft | 454 kts | 137° |
| 2026-04-24 12:15 | 45.13499 | 9.78386 | 30267 ft | 458 kts | 142° |
| 2026-04-24 12:15 | 45.10876 | 9.80956 | 30505 ft | 459 kts | 142° |
| 2026-04-24 12:15 | 45.08284 | 9.83506 | 30726 ft | 460 kts | 142° |
| 2026-04-24 12:15 | 45.05621 | 9.86131 | 31038 ft | 460 kts | 142° |
| 2026-04-24 12:16 | 45.03037 | 9.88678 | 31347 ft | 459 kts | 142° |
| 2026-04-24 12:16 | 45.00432 | 9.91242 | 31659 ft | 458 kts | 142° |
| 2026-04-24 12:16 | 44.97819 | 9.93808 | 31965 ft | 457 kts | 142° |
| 2026-04-24 12:16 | 44.95208 | 9.96367 | 32284 ft | 457 kts | 142° |
| 2026-04-24 12:17 | 44.92597 | 9.98923 | 32614 ft | 456 kts | 142° |
| 2026-04-24 12:17 | 44.89988 | 10.01474 | 32921 ft | 455 kts | 142° |
| 2026-04-24 12:17 | 44.87383 | 10.04008 | 33243 ft | 455 kts | 142° |
| 2026-04-24 12:17 | 44.84771 | 10.06546 | 33560 ft | 454 kts | 142° |
| 2026-04-24 12:18 | 44.82174 | 10.09073 | 33884 ft | 454 kts | 142° |
| 2026-04-24 12:18 | 44.79612 | 10.11560 | 34182 ft | 453 kts | 142° |
| 2026-04-24 12:18 | 44.77008 | 10.14085 | 34460 ft | 452 kts | 142° |
| 2026-04-24 12:18 | 44.74420 | 10.16595 | 34744 ft | 451 kts | 142° |
| 2026-04-24 12:19 | 44.71839 | 10.19097 | 35034 ft | 450 kts | 142° |
| 2026-04-24 12:19 | 44.69269 | 10.21612 | 35308 ft | 449 kts | 141° |
| 2026-04-24 12:19 | 44.66729 | 10.24168 | 35573 ft | 448 kts | 140° |
| 2026-04-24 12:19 | 44.64209 | 10.26756 | 35836 ft | 448 kts | 140° |
| 2026-04-24 12:20 | 44.61704 | 10.29348 | 36056 ft | 448 kts | 140° |
| 2026-04-24 12:20 | 44.59193 | 10.31942 | 36187 ft | 448 kts | 140° |
| 2026-04-24 12:20 | 44.56676 | 10.34521 | 36189 ft | 448 kts | 140° |
| 2026-04-24 12:21 | 44.51633 | 10.39647 | 36205 ft | 447 kts | 140° |
| 2026-04-24 12:21 | 44.46583 | 10.44753 | 36212 ft | 448 kts | 140° |
| 2026-04-24 12:21 | 44.44085 | 10.47271 | 36368 ft | 448 kts | 140° |
| 2026-04-24 12:22 | 44.41559 | 10.49812 | 36608 ft | 447 kts | 140° |
| 2026-04-24 12:22 | 44.39039 | 10.52350 | 36840 ft | 447 kts | 140° |
| 2026-04-24 12:22 | 44.36516 | 10.54894 | 37074 ft | 446 kts | 140° |
| 2026-04-24 12:22 | 44.33996 | 10.57430 | 37226 ft | 446 kts | 140° |
| 2026-04-24 12:23 | 44.31476 | 10.59961 | 37230 ft | 446 kts | 140° |
| 2026-04-24 12:23 | 44.26436 | 10.65021 | 37251 ft | 446 kts | 140° |
| 2026-04-24 12:24 | 44.21398 | 10.70073 | 37244 ft | 446 kts | 140° |
| 2026-04-24 12:24 | 44.16423 | 10.75234 | 37230 ft | 445 kts | 137° |
| 2026-04-24 12:25 | 44.11632 | 10.80607 | 37227 ft | 444 kts | 136° |
| 2026-04-24 12:25 | 44.06836 | 10.86018 | 37218 ft | 444 kts | 137° |
| 2026-04-24 12:26 | 44.01993 | 10.91365 | 37185 ft | 445 kts | 137° |
| 2026-04-24 12:26 | 43.97129 | 10.96671 | 37158 ft | 444 kts | 137° |
| 2026-04-24 12:27 | 43.92266 | 11.01971 | 37138 ft | 445 kts | 137° |
| 2026-04-24 12:27 | 43.88217 | 11.06381 | 37138 ft | 445 kts | 138° |
| 2026-04-24 12:28 | 43.83350 | 11.11666 | 37134 ft | 444 kts | 137° |
| 2026-04-24 12:28 | 43.78484 | 11.16951 | 37132 ft | 445 kts | 137° |
| 2026-04-24 12:29 | 43.73619 | 11.22243 | 37132 ft | 444 kts | 137° |
| 2026-04-24 12:29 | 43.68750 | 11.27506 | 37133 ft | 445 kts | 138° |
| 2026-04-24 12:30 | 43.63866 | 11.32765 | 37147 ft | 445 kts | 137° |
| 2026-04-24 12:30 | 43.58980 | 11.38034 | 37128 ft | 446 kts | 137° |
| 2026-04-24 12:31 | 43.54114 | 11.43267 | 37125 ft | 447 kts | 138° |
| 2026-04-24 12:31 | 43.49199 | 11.48531 | 37128 ft | 447 kts | 138° |
| 2026-04-24 12:32 | 43.44287 | 11.53778 | 37127 ft | 447 kts | 138° |
| 2026-04-24 12:32 | 43.39373 | 11.59023 | 37128 ft | 447 kts | 138° |
| 2026-04-24 12:33 | 43.34465 | 11.64254 | 37125 ft | 447 kts | 138° |
| 2026-04-24 12:33 | 43.29544 | 11.69491 | 37137 ft | 447 kts | 138° |
| 2026-04-24 12:34 | 43.24647 | 11.74687 | 37139 ft | 447 kts | 138° |
| 2026-04-24 12:34 | 43.19718 | 11.79906 | 37137 ft | 448 kts | 138° |
| 2026-04-24 12:35 | 43.14780 | 11.85122 | 37129 ft | 448 kts | 138° |
| 2026-04-24 12:35 | 43.09838 | 11.90327 | 37126 ft | 448 kts | 138° |
| 2026-04-24 12:36 | 43.04895 | 11.95527 | 37124 ft | 448 kts | 138° |
| 2026-04-24 12:36 | 42.99947 | 12.00718 | 37126 ft | 448 kts | 138° |
| 2026-04-24 12:37 | 42.95013 | 12.05877 | 37140 ft | 449 kts | 138° |
| 2026-04-24 12:37 | 42.90060 | 12.11062 | 37131 ft | 449 kts | 138° |
| 2026-04-24 12:38 | 42.85103 | 12.16245 | 37125 ft | 449 kts | 138° |
| 2026-04-24 12:38 | 42.80137 | 12.21414 | 37117 ft | 448 kts | 139° |
| 2026-04-24 12:39 | 42.70198 | 12.31728 | 37120 ft | 450 kts | 139° |
| 2026-04-24 12:40 | 42.65215 | 12.36880 | 37109 ft | 450 kts | 139° |
| 2026-04-24 12:40 | 42.60230 | 12.42020 | 37124 ft | 450 kts | 139° |
| 2026-04-24 12:41 | 42.55235 | 12.47175 | 37120 ft | 451 kts | 139° |
| 2026-04-24 12:41 | 42.50229 | 12.52323 | 37117 ft | 452 kts | 139° |
| 2026-04-24 12:42 | 42.45217 | 12.57462 | 37118 ft | 452 kts | 139° |
| 2026-04-24 12:42 | 42.40229 | 12.62574 | 37118 ft | 453 kts | 139° |
| 2026-04-24 12:43 | 42.35198 | 12.67716 | 37122 ft | 453 kts | 139° |
| 2026-04-24 12:43 | 42.30161 | 12.72862 | 37137 ft | 453 kts | 139° |
| 2026-04-24 12:44 | 42.25126 | 12.77996 | 37140 ft | 453 kts | 139° |
| 2026-04-24 12:44 | 42.20078 | 12.83117 | 37126 ft | 454 kts | 139° |
| 2026-04-24 12:45 | 42.15025 | 12.88256 | 37114 ft | 455 kts | 139° |
| 2026-04-24 12:45 | 42.10060 | 12.93459 | 37117 ft | 455 kts | 138° |
| 2026-04-24 12:46 | 42.05087 | 12.98725 | 37118 ft | 455 kts | 138° |
| 2026-04-24 12:46 | 42.00095 | 13.03961 | 37116 ft | 455 kts | 138° |
| 2026-04-24 12:47 | 41.95109 | 13.09142 | 37112 ft | 455 kts | 139° |
| 2026-04-24 12:47 | 41.90097 | 13.14339 | 37139 ft | 455 kts | 139° |
| 2026-04-24 12:48 | 41.85079 | 13.19550 | 37131 ft | 456 kts | 139° |
| 2026-04-24 12:48 | 41.80058 | 13.24753 | 37131 ft | 456 kts | 139° |
| 2026-04-24 12:49 | 41.75034 | 13.29940 | 37131 ft | 456 kts | 139° |
| 2026-04-24 12:49 | 41.70048 | 13.35078 | 37131 ft | 456 kts | 139° |
| 2026-04-24 12:50 | 41.65018 | 13.40257 | 37129 ft | 456 kts | 139° |
| 2026-04-24 12:50 | 41.59983 | 13.45437 | 37130 ft | 456 kts | 139° |
| 2026-04-24 12:51 | 41.54950 | 13.50597 | 37141 ft | 456 kts | 139° |
| 2026-04-24 12:51 | 41.49916 | 13.55755 | 37130 ft | 456 kts | 139° |
| 2026-04-24 12:52 | 41.44908 | 13.60868 | 37127 ft | 456 kts | 139° |
| 2026-04-24 12:52 | 41.39868 | 13.66003 | 37119 ft | 456 kts | 139° |
| 2026-04-24 12:53 | 41.34822 | 13.71138 | 37121 ft | 456 kts | 140° |
| 2026-04-24 12:53 | 41.29769 | 13.76271 | 37115 ft | 456 kts | 140° |
| 2026-04-24 12:54 | 41.24716 | 13.81388 | 37112 ft | 457 kts | 140° |
| 2026-04-24 12:54 | 41.19653 | 13.86501 | 37134 ft | 456 kts | 140° |
| 2026-04-24 12:55 | 41.14590 | 13.91599 | 37134 ft | 457 kts | 140° |
| 2026-04-24 12:55 | 41.09532 | 13.96697 | 37119 ft | 457 kts | 140° |
| 2026-04-24 12:56 | 41.04471 | 14.01790 | 37125 ft | 457 kts | 140° |
| 2026-04-24 12:56 | 40.99399 | 14.06881 | 37134 ft | 457 kts | 140° |
| 2026-04-24 12:57 | 40.94330 | 14.11953 | 37132 ft | 457 kts | 140° |
| 2026-04-24 12:57 | 40.89254 | 14.17021 | 37116 ft | 457 kts | 141° |
| 2026-04-24 12:58 | 40.84184 | 14.22071 | 37125 ft | 457 kts | 141° |
| 2026-04-24 12:58 | 40.79101 | 14.27131 | 37113 ft | 457 kts | 141° |
| 2026-04-24 12:59 | 40.74052 | 14.32156 | 37121 ft | 457 kts | 141° |
| 2026-04-24 12:59 | 40.68966 | 14.37204 | 37116 ft | 458 kts | 141° |
| 2026-04-24 13:00 | 40.63872 | 14.42243 | 37115 ft | 458 kts | 141° |
| 2026-04-24 13:00 | 40.58770 | 14.47286 | 37117 ft | 458 kts | 141° |
| 2026-04-24 13:01 | 40.53659 | 14.52317 | 37117 ft | 459 kts | 141° |
| 2026-04-24 13:01 | 40.48578 | 14.57307 | 37118 ft | 459 kts | 141° |
| 2026-04-24 13:02 | 40.43481 | 14.62310 | 37116 ft | 459 kts | 141° |
| 2026-04-24 13:02 | 40.38362 | 14.67321 | 37115 ft | 459 kts | 141° |
| 2026-04-24 13:03 | 40.33238 | 14.72323 | 37114 ft | 459 kts | 141° |
| 2026-04-24 13:03 | 40.28111 | 14.77326 | 37115 ft | 460 kts | 141° |
| 2026-04-24 13:04 | 40.22975 | 14.82335 | 37113 ft | 460 kts | 141° |
| 2026-04-24 13:04 | 40.17843 | 14.87329 | 37119 ft | 460 kts | 141° |
| 2026-04-24 13:05 | 40.12712 | 14.92313 | 37128 ft | 460 kts | 141° |
| 2026-04-24 13:05 | 40.07571 | 14.97293 | 37129 ft | 460 kts | 141° |
| 2026-04-24 13:06 | 40.02458 | 15.02233 | 37123 ft | 460 kts | 142° |
| 2026-04-24 13:06 | 39.97314 | 15.07190 | 37120 ft | 460 kts | 142° |
| 2026-04-24 13:07 | 39.92155 | 15.12153 | 37117 ft | 460 kts | 142° |
| 2026-04-24 13:07 | 39.86997 | 15.17106 | 37114 ft | 460 kts | 142° |
| 2026-04-24 13:08 | 39.81835 | 15.22065 | 37115 ft | 461 kts | 142° |
| 2026-04-24 13:08 | 39.76679 | 15.27013 | 37116 ft | 461 kts | 142° |
| 2026-04-24 13:09 | 39.71514 | 15.31950 | 36937 ft | 461 kts | 141° |
| 2026-04-24 13:09 | 39.68964 | 15.34509 | 36305 ft | 462 kts | 139° |
| 2026-04-24 13:09 | 39.66496 | 15.37185 | 35483 ft | 463 kts | 137° |
| 2026-04-24 13:09 | 39.64069 | 15.39949 | 34574 ft | 466 kts | 136° |
| 2026-04-24 13:10 | 39.61657 | 15.42754 | 33698 ft | 467 kts | 136° |
| 2026-04-24 13:10 | 39.59227 | 15.45565 | 32665 ft | 469 kts | 136° |
| 2026-04-24 13:10 | 39.56780 | 15.48352 | 31597 ft | 470 kts | 136° |
| 2026-04-24 13:10 | 39.54298 | 15.51134 | 30562 ft | 472 kts | 137° |
| 2026-04-24 13:11 | 39.51840 | 15.53856 | 29896 ft | 460 kts | 137° |
| 2026-04-24 13:11 | 39.49415 | 15.56521 | 29190 ft | 454 kts | 137° |
| 2026-04-24 13:11 | 39.47029 | 15.59140 | 28516 ft | 447 kts | 137° |
| 2026-04-24 13:11 | 39.44668 | 15.61734 | 27852 ft | 442 kts | 137° |
| 2026-04-24 13:12 | 39.42369 | 15.64266 | 27221 ft | 437 kts | 137° |
| 2026-04-24 13:12 | 39.40065 | 15.66808 | 26553 ft | 434 kts | 137° |
| 2026-04-24 13:12 | 39.37781 | 15.69325 | 25933 ft | 430 kts | 137° |
| 2026-04-24 13:12 | 39.35509 | 15.71827 | 25358 ft | 428 kts | 137° |
| 2026-04-24 13:13 | 39.33242 | 15.74321 | 24736 ft | 429 kts | 137° |
| 2026-04-24 13:13 | 39.30970 | 15.76820 | 24051 ft | 428 kts | 137° |
| 2026-04-24 13:13 | 39.28708 | 15.79306 | 23416 ft | 425 kts | 137° |
| 2026-04-24 13:13 | 39.26466 | 15.81768 | 22820 ft | 420 kts | 138° |
| 2026-04-24 13:14 | 39.24252 | 15.84190 | 22288 ft | 415 kts | 138° |
| 2026-04-24 13:14 | 39.22062 | 15.86584 | 21756 ft | 411 kts | 137° |
| 2026-04-24 13:14 | 39.19899 | 15.88965 | 21251 ft | 406 kts | 136° |
| 2026-04-24 13:14 | 39.18518 | 15.90580 | 20931 ft | 403 kts | 135° |
| 2026-04-24 13:15 | 39.16509 | 15.93078 | 20429 ft | 399 kts | 133° |
| 2026-04-24 13:15 | 39.14566 | 15.95614 | 19932 ft | 396 kts | 132° |
| 2026-04-24 13:15 | 39.12654 | 15.98153 | 19433 ft | 393 kts | 132° |
| 2026-04-24 13:15 | 39.10136 | 16.01480 | 18770 ft | 390 kts | 132° |
| 2026-04-24 13:16 | 39.08847 | 16.03154 | 18415 ft | 389 kts | 132° |
| 2026-04-24 13:16 | 39.06929 | 16.05617 | 17852 ft | 388 kts | 133° |
| 2026-04-24 13:16 | 39.05046 | 16.08017 | 17327 ft | 385 kts | 133° |
| 2026-04-24 13:16 | 39.03153 | 16.10423 | 16805 ft | 382 kts | 133° |
| 2026-04-24 13:17 | 39.01270 | 16.12815 | 16282 ft | 379 kts | 133° |
| 2026-04-24 13:17 | 38.99420 | 16.15167 | 15766 ft | 376 kts | 133° |
| 2026-04-24 13:17 | 38.97571 | 16.17517 | 15241 ft | 373 kts | 133° |
| 2026-04-24 13:17 | 38.95729 | 16.19852 | 14718 ft | 371 kts | 133° |
| 2026-04-24 13:18 | 38.93898 | 16.22169 | 14194 ft | 369 kts | 133° |
| 2026-04-24 13:18 | 38.92078 | 16.24478 | 13645 ft | 366 kts | 133° |
| 2026-04-24 13:18 | 38.90408 | 16.26910 | 13098 ft | 361 kts | 123° |
| 2026-04-24 13:18 | 38.89121 | 16.29642 | 12574 ft | 355 kts | 116° |
| 2026-04-24 13:19 | 38.87940 | 16.32412 | 12036 ft | 352 kts | 116° |
| 2026-04-24 13:19 | 38.86762 | 16.35159 | 11529 ft | 350 kts | 116° |
| 2026-04-24 13:19 | 38.85591 | 16.37876 | 10970 ft | 348 kts | 116° |
| 2026-04-24 13:19 | 38.84424 | 16.40570 | 10643 ft | 339 kts | 116° |
| 2026-04-24 13:20 | 38.83300 | 16.43151 | 10535 ft | 325 kts | 116° |
| 2026-04-24 13:20 | 38.82233 | 16.45601 | 10364 ft | 304 kts | 116° |
| 2026-04-24 13:20 | 38.81221 | 16.47934 | 9926 ft | 297 kts | 116° |
| 2026-04-24 13:20 | 38.80231 | 16.50226 | 9789 ft | 292 kts | 116° |
| 2026-04-24 13:21 | 38.79250 | 16.52502 | 9652 ft | 291 kts | 115° |
| 2026-04-24 13:21 | 38.78492 | 16.54907 | 9127 ft | 293 kts | 101° |
| 2026-04-24 13:21 | 38.78153 | 16.57423 | 8541 ft | 283 kts | 95° |
| 2026-04-24 13:21 | 38.77873 | 16.59873 | 8173 ft | 268 kts | 92° |
| 2026-04-24 13:22 | 38.78084 | 16.62115 | 7816 ft | 248 kts | 65° |
| 2026-04-24 13:22 | 38.78991 | 16.63953 | 7705 ft | 244 kts | 42° |
| 2026-04-24 13:22 | 38.80354 | 16.65136 | 7451 ft | 234 kts | 20° |
| 2026-04-24 13:22 | 38.81928 | 16.65564 | 7098 ft | 231 kts | 360° |
| 2026-04-24 13:23 | 38.83506 | 16.65217 | 6723 ft | 231 kts | 338° |
| 2026-04-24 13:23 | 38.84871 | 16.64148 | 6292 ft | 232 kts | 317° |
| 2026-04-24 13:23 | 38.85832 | 16.62470 | 5876 ft | 236 kts | 295° |
| 2026-04-24 13:23 | 38.86244 | 16.60446 | 5514 ft | 235 kts | 279° |
| 2026-04-24 13:24 | 38.86492 | 16.58368 | 5114 ft | 236 kts | 279° |
| 2026-04-24 13:24 | 38.86742 | 16.56288 | 4755 ft | 235 kts | 279° |
| 2026-04-24 13:24 | 38.86991 | 16.54227 | 4424 ft | 233 kts | 278° |
| 2026-04-24 13:24 | 38.87236 | 16.52168 | 4115 ft | 232 kts | 278° |
| 2026-04-24 13:25 | 38.87479 | 16.50137 | 3792 ft | 229 kts | 277° |
| 2026-04-24 13:25 | 38.87718 | 16.48136 | 3473 ft | 225 kts | 276° |
| 2026-04-24 13:25 | 38.87952 | 16.46168 | 3184 ft | 216 kts | 276° |
| 2026-04-24 13:25 | 38.88169 | 16.44345 | 2890 ft | 198 kts | 276° |
| 2026-04-24 13:26 | 38.88367 | 16.42679 | 2658 ft | 188 kts | 276° |
| 2026-04-24 13:26 | 38.88563 | 16.41031 | 2411 ft | 176 kts | 276° |
| 2026-04-24 13:26 | 38.88736 | 16.39580 | 2207 ft | 156 kts | 275° |
| 2026-04-24 13:26 | 38.88892 | 16.38262 | 2010 ft | 143 kts | 277° |
| 2026-04-24 13:27 | 38.89035 | 16.37044 | 1831 ft | 135 kts | 275° |
| 2026-04-24 13:27 | 38.89174 | 16.35862 | 1654 ft | 132 kts | 277° |
| 2026-04-24 13:27 | 38.89312 | 16.34691 | 1439 ft | 132 kts | 277° |
| 2026-04-24 13:27 | 38.89446 | 16.33550 | 1264 ft | 128 kts | 275° |
| 2026-04-24 13:28 | 38.89579 | 16.32422 | 1098 ft | 127 kts | 274° |
| 2026-04-24 13:28 | 38.89709 | 16.31315 | 933 ft | 124 kts | 273° |
| 2026-04-24 13:28 | 38.89835 | 16.30224 | 738 ft | 123 kts | 275° |
| 2026-04-24 13:28 | 38.89966 | 16.29138 | 552 ft | 124 kts | 277° |
| 2026-04-24 13:29 | 38.90100 | 16.27995 | 391 ft | 130 kts | 277° |
| 2026-04-24 13:29 | 38.90230 | 16.26887 | 226 ft | 126 kts | 276° |
| 2026-04-24 13:29 | 38.90359 | 16.25801 | 83 ft | 122 kts | 276° |
| 2026-04-24 13:29 | 38.90477 | 16.24737 | 38 ft | 115 kts | 277° |
| 2026-04-24 13:30 | 38.90571 | 16.23969 | 30 ft | 61 kts | 278° |
| 2026-04-24 13:30 | 38.90637 | 16.23643 | 30 ft | 28 kts | 309° |
| 2026-04-24 13:30 | 38.90751 | 16.23491 | 28 ft | 16 kts | 334° |
| 2026-04-24 13:30 | 38.90835 | 16.23545 | 28 ft | 14 kts | 69° |
| 2026-04-24 13:31 | 38.90830 | 16.23664 | 29 ft | 13 kts | 98° |
| 2026-04-24 13:31 | 38.90819 | 16.23770 | 30 ft | 11 kts | 97° |
| 2026-04-24 13:31 | 38.90802 | 16.23900 | 31 ft | 22 kts | 98° |
| 2026-04-24 13:31 | 38.90781 | 16.24094 | 32 ft | 21 kts | 98° |
| 2026-04-24 13:32 | 38.90804 | 16.24220 | 33 ft | 10 kts | 11° |
| 2026-04-24 13:32 | 38.90830 | 16.24287 | 34 ft | 12 kts | 98° |
| 2026-04-24 13:32 | 38.90811 | 16.24452 | 32 ft | 19 kts | 97° |
| 2026-04-24 13:32 | 38.90792 | 16.24614 | 36 ft | 17 kts | 99° |
| 2026-04-24 13:33 | 38.90775 | 16.24760 | 37 ft | 16 kts | 98° |
| 2026-04-24 13:33 | 38.90764 | 16.24866 | 38 ft | 8 kts | 97° |
| 2026-04-24 13:33 | 38.90780 | 16.24886 | 38 ft | 1 kts | 12° |
| 2026-04-24 13:33 | 38.90810 | 16.24894 | 38 ft | 4 kts | 11° |
| 2026-04-24 13:34 | 38.90819 | 16.24897 | 38 ft | 1 kts | 11° |
| 2026-04-24 13:34 | 38.90823 | 16.24897 | 38 ft | 0 kts | 11° |
| 2026-04-24 13:34 | 38.90823 | 16.24898 | 38 ft | 0 kts | 12° |